createdAt,value
2022-11-21T00:01:23.343Z,16.20
2022-11-21T00:03:51.677Z,16.12
2022-11-21T00:06:21.009Z,14.73
2022-11-21T00:08:48.927Z,15.18
2022-11-21T00:11:17.198Z,15.05
2022-11-21T00:13:45.401Z,14.07
2022-11-21T00:16:15.692Z,14.73
2022-11-21T00:18:44.686Z,15.15
2022-11-21T00:21:15.339Z,15.40
2022-11-21T00:23:44.490Z,13.53
2022-11-21T00:26:14.386Z,13.03
2022-11-21T00:28:42.575Z,12.33
2022-11-21T00:31:12.305Z,13.60
2022-11-21T00:33:40.667Z,13.88
2022-11-21T00:36:09.702Z,12.75
2022-11-21T00:38:37.514Z,15.38
2022-11-21T00:41:06.280Z,13.60
2022-11-21T00:43:35.311Z,14.03
2022-11-21T00:46:03.524Z,16.02
2022-11-21T00:48:33.347Z,19.92
2022-11-21T00:51:02.514Z,21.75
2022-11-21T00:53:31.241Z,22.30
2022-11-21T00:55:59.189Z,20.92
2022-11-21T00:58:27.526Z,21.93
2022-11-21T01:01:08.030Z,21.10
2022-11-21T01:03:36.438Z,20.70
2022-11-21T01:06:07.448Z,20.70
2022-11-21T01:08:37.120Z,20.80
2022-11-21T01:11:08.037Z,20.62
2022-11-21T01:13:36.796Z,20.70
2022-11-21T01:16:11.315Z,19.90
2022-11-21T01:18:39.808Z,19.50
2022-11-21T01:21:14.892Z,18.35
2022-11-21T01:26:17.301Z,18.30
2022-11-21T01:28:46.018Z,18.63
2022-11-21T01:31:17.636Z,17.10
2022-11-21T01:33:46.572Z,15.78
2022-11-21T01:36:21.090Z,17.17
2022-11-21T01:38:51.993Z,15.93
2022-11-21T01:41:23.707Z,16.75
2022-11-21T01:43:52.018Z,16.30
2022-11-21T01:46:22.854Z,15.15
2022-11-21T01:49:03.762Z,17.05
2022-11-21T01:51:35.701Z,16.70
2022-11-21T01:54:16.585Z,16.80
2022-11-21T01:56:51.165Z,15.58
2022-11-21T01:59:26.133Z,16.00
2022-11-21T02:01:55.019Z,15.45
2022-11-21T02:04:25.259Z,17.10
2022-11-21T02:06:53.215Z,16.23
2022-11-21T02:09:22.315Z,16.87
2022-11-21T02:11:56.347Z,17.17
2022-11-21T02:14:25.044Z,16.55
2022-11-21T02:16:56.624Z,16.77
2022-11-21T02:19:37.314Z,17.35
2022-11-21T02:22:20.698Z,19.52
2022-11-21T02:25:01.621Z,17.95
2022-11-21T02:27:33.224Z,18.40
2022-11-21T02:30:03.699Z,17.80
2022-11-21T02:32:37.725Z,18.05
2022-11-21T02:35:06.790Z,20.10
2022-11-21T02:37:37.726Z,18.02
2022-11-21T02:40:15.192Z,18.25
2022-11-21T02:42:51.421Z,17.80
2022-11-21T02:45:23.144Z,16.70
2022-11-21T02:47:58.042Z,17.85
2022-11-21T02:50:27.856Z,16.52
2022-11-21T02:52:56.512Z,19.05
2022-11-21T02:55:25.975Z,17.27
2022-11-21T02:57:54.702Z,19.35
2022-11-21T03:00:23.189Z,20.35
2022-11-21T03:02:51.874Z,18.87
2022-11-21T03:05:21.347Z,18.32
2022-11-21T03:07:49.555Z,20.72
2022-11-21T03:10:18.399Z,19.70
2022-11-21T03:12:46.007Z,19.75
2022-11-21T03:15:16.448Z,20.15
2022-11-21T03:17:46.729Z,21.07
2022-11-21T03:20:14.754Z,21.70
2022-11-21T03:22:42.463Z,20.60
2022-11-21T03:25:13.605Z,20.02
2022-11-21T03:27:41.346Z,20.85
2022-11-21T03:30:10.543Z,21.42
2022-11-21T03:32:38.433Z,21.27
2022-11-21T03:35:06.705Z,21.75
2022-11-21T03:37:54.292Z,22.50
2022-11-21T03:40:22.104Z,22.52
2022-11-21T03:42:50.468Z,22.75
2022-11-21T03:45:18.497Z,22.70
2022-11-21T03:47:46.622Z,20.62
2022-11-21T03:50:16.193Z,20.80
2022-11-21T03:52:44.235Z,21.55
2022-11-21T03:55:12.272Z,21.90
2022-11-21T03:57:43.417Z,21.12
2022-11-21T04:00:14.034Z,22.75
2022-11-21T04:02:42.136Z,22.20
2022-11-21T04:05:10.266Z,21.00
2022-11-21T04:07:41.473Z,22.35
2022-11-21T04:10:12.249Z,22.00
2022-11-21T04:12:39.873Z,20.80
2022-11-21T04:15:13.335Z,21.37
2022-11-21T04:17:38.993Z,21.07
2022-11-21T04:20:07.951Z,20.30
2022-11-21T04:22:36.715Z,19.52
2022-11-21T04:25:04.904Z,20.48
2022-11-21T04:27:32.747Z,22.48
2022-11-21T04:30:00.939Z,20.75
2022-11-21T04:32:28.936Z,20.97
2022-11-21T04:34:57.132Z,21.42
2022-11-21T04:37:25.523Z,21.65
2022-11-21T04:39:53.564Z,21.68
2022-11-21T04:42:21.969Z,21.10
2022-11-21T04:44:53.169Z,23.15
2022-11-21T04:47:21.353Z,23.25
2022-11-21T04:49:49.375Z,23.30
2022-11-21T04:52:18.635Z,23.92
2022-11-21T04:54:46.622Z,25.10
2022-11-21T04:57:15.412Z,24.35
2022-11-21T04:59:42.916Z,25.08
2022-11-21T05:02:11.843Z,24.12
2022-11-21T05:04:40.335Z,24.70
2022-11-21T05:07:08.284Z,25.37
2022-11-21T05:09:36.330Z,23.40
2022-11-21T05:12:22.833Z,23.57
2022-11-21T05:14:51.461Z,24.30
2022-11-21T05:17:19.233Z,24.40
2022-11-21T05:19:46.805Z,23.62
2022-11-21T05:22:15.036Z,24.55
2022-11-21T05:24:43.760Z,24.02
2022-11-21T05:27:11.641Z,25.32
2022-11-21T05:29:39.643Z,22.75
2022-11-21T05:32:07.636Z,22.75
2022-11-21T05:34:36.203Z,22.40
2022-11-21T05:37:04.614Z,22.13
2022-11-21T05:39:32.747Z,22.87
2022-11-21T05:42:03.169Z,23.07
2022-11-21T05:44:30.890Z,21.48
2022-11-21T05:46:58.922Z,23.22
2022-11-21T05:49:26.573Z,24.10
2022-11-21T05:51:54.742Z,23.32
2022-11-21T05:54:23.186Z,24.45
2022-11-21T05:56:51.001Z,29.40
2022-11-21T05:59:19.328Z,25.90
2022-11-21T06:02:06.805Z,23.40
2022-11-21T06:04:35.720Z,23.10
2022-11-21T06:07:03.640Z,24.00
2022-11-21T06:09:32.167Z,24.95
2022-11-21T06:12:03.190Z,25.77
2022-11-21T06:14:31.108Z,23.12
2022-11-21T06:16:59.723Z,23.00
2022-11-21T06:19:27.776Z,24.77
2022-11-21T06:21:55.386Z,25.17
2022-11-21T06:24:23.377Z,25.05
2022-11-21T06:26:52.118Z,22.93
2022-11-21T06:29:21.682Z,25.45
2022-11-21T06:31:50.897Z,23.47
2022-11-21T06:34:18.887Z,25.65
2022-11-21T06:36:46.656Z,24.40
2022-11-21T06:39:15.328Z,23.27
2022-11-21T06:41:43.041Z,25.72
2022-11-21T06:44:10.865Z,24.45
2022-11-21T06:46:39.405Z,25.65
2022-11-21T06:49:07.542Z,25.27
2022-11-21T06:51:35.476Z,25.32
2022-11-21T06:54:03.871Z,25.30
2022-11-21T06:56:32.301Z,24.05
2022-11-21T06:59:00.874Z,27.40
2022-11-21T07:01:29.185Z,27.15
2022-11-21T07:03:58.439Z,26.17
2022-11-21T07:06:29.538Z,26.62
2022-11-21T07:09:31.664Z,24.32
2022-11-21T07:11:29.712Z,26.52
2022-11-21T07:13:57.504Z,25.27
2022-11-21T07:16:26.651Z,25.25
2022-11-21T07:18:54.438Z,24.92
2022-11-21T07:21:22.447Z,25.25
2022-11-21T07:23:50.461Z,27.80
2022-11-21T07:26:18.531Z,26.80
2022-11-21T07:28:46.534Z,29.63
2022-11-21T07:31:14.557Z,28.98
2022-11-21T07:34:02.346Z,26.87
2022-11-21T07:36:32.623Z,26.70
2022-11-21T07:39:00.478Z,26.75
2022-11-21T07:41:29.034Z,27.20
2022-11-21T07:43:57.826Z,27.55
2022-11-21T07:46:26.188Z,26.48
2022-11-21T07:48:54.062Z,27.42
2022-11-21T07:51:22.186Z,28.42
2022-11-21T07:53:50.155Z,27.55
2022-11-21T07:56:18.596Z,27.90
2022-11-21T07:58:47.775Z,28.47
2022-11-21T08:01:15.924Z,28.42
2022-11-21T08:03:43.927Z,29.42
2022-11-21T08:06:13.198Z,28.87
2022-11-21T08:08:40.937Z,27.62
2022-11-21T08:11:08.881Z,28.10
2022-11-21T08:13:36.571Z,29.32
2022-11-21T08:16:05.530Z,29.48
2022-11-21T08:18:33.734Z,29.87
2022-11-21T08:21:05.186Z,30.15
2022-11-21T08:23:33.048Z,29.95
2022-11-21T08:26:01.414Z,28.35
2022-11-21T08:28:29.730Z,27.52
2022-11-21T08:30:57.389Z,28.47
2022-11-21T08:33:25.717Z,29.42
2022-11-21T08:35:54.837Z,27.17
2022-11-21T08:38:22.751Z,29.07
2022-11-21T08:40:55.423Z,29.15
2022-11-21T08:43:24.010Z,30.15
2022-11-21T08:45:55.438Z,29.90
2022-11-21T08:48:24.072Z,30.12
2022-11-21T08:50:53.063Z,31.02
2022-11-21T08:53:20.580Z,29.23
2022-11-21T08:55:48.650Z,29.60
2022-11-21T08:58:16.569Z,29.98
2022-11-21T09:00:46.508Z,31.50
2022-11-21T09:03:19.042Z,32.28
2022-11-21T09:05:44.929Z,30.77
2022-11-21T09:08:13.308Z,31.00
2022-11-21T09:10:41.388Z,31.93
2022-11-21T09:13:09.243Z,34.78
2022-11-21T09:15:55.328Z,35.50
2022-11-21T09:18:23.456Z,34.10
2022-11-21T09:20:51.310Z,35.23
2022-11-21T09:23:19.259Z,34.20
2022-11-21T09:25:49.065Z,33.18
2022-11-21T09:28:17.373Z,32.65
2022-11-21T09:30:45.057Z,33.90
2022-11-21T09:33:14.954Z,33.95
2022-11-21T09:35:42.314Z,38.88
2022-11-21T09:38:10.735Z,35.52
2022-11-21T09:40:42.150Z,31.82
2022-11-21T09:43:28.958Z,33.10
2022-11-21T09:46:06.805Z,34.35
2022-11-21T09:48:53.282Z,33.28
2022-11-21T09:51:22.892Z,33.70
2022-11-21T09:54:14.580Z,34.15
2022-11-21T09:56:43.595Z,35.55
2022-11-21T09:59:24.599Z,36.77
2022-11-21T10:01:52.673Z,35.10
2022-11-21T10:04:20.867Z,32.38
2022-11-21T10:07:05.349Z,35.00
2022-11-21T10:09:37.069Z,33.65
2022-11-21T10:12:26.940Z,32.78
2022-11-21T10:15:23.006Z,32.95
2022-11-21T10:17:54.642Z,33.60
2022-11-21T10:20:57.991Z,33.58
2022-11-21T10:23:44.558Z,34.58
2022-11-21T10:26:18.007Z,33.73
2022-11-21T10:28:49.667Z,35.10
2022-11-21T10:31:20.273Z,33.80
2022-11-21T10:33:50.585Z,33.25
2022-11-21T10:36:27.795Z,33.35
2022-11-21T10:39:05.232Z,35.85
2022-11-21T10:41:42.720Z,35.65
2022-11-21T10:44:33.642Z,36.83
2022-11-21T10:47:02.283Z,33.85
2022-11-21T10:49:34.123Z,34.88
2022-11-21T10:52:17.573Z,34.58
2022-11-21T10:55:07.463Z,31.97
2022-11-21T10:57:41.789Z,34.83
2022-11-21T11:00:16.699Z,33.70
2022-11-21T11:02:48.286Z,34.03
2022-11-21T11:05:26.305Z,34.10
2022-11-21T11:08:29.215Z,33.42
2022-11-21T11:11:06.668Z,35.85
2022-11-21T11:13:46.838Z,34.23
2022-11-21T11:16:15.949Z,34.05
2022-11-21T11:18:50.710Z,34.90
2022-11-21T11:21:26.178Z,34.03
2022-11-21T11:23:55.630Z,34.85
2022-11-21T11:26:27.213Z,35.75
2022-11-21T11:29:01.676Z,35.60
2022-11-21T11:31:33.170Z,34.23
2022-11-21T11:34:03.738Z,33.42
2022-11-21T11:36:44.778Z,34.18
2022-11-21T11:39:39.443Z,33.30
2022-11-21T11:42:29.262Z,35.00
2022-11-21T11:45:34.357Z,34.00
2022-11-21T11:48:13.023Z,35.03
2022-11-21T11:50:53.481Z,29.80
2022-11-21T11:53:31.334Z,35.33
2022-11-21T11:56:13.125Z,34.80
2022-11-21T11:59:19.290Z,34.30
2022-11-21T12:01:56.729Z,33.85
2022-11-21T12:04:26.348Z,35.48
2022-11-21T12:10:20.028Z,34.95
2022-11-21T12:13:09.070Z,35.33
2022-11-21T12:15:50.419Z,35.10
2022-11-21T12:18:35.271Z,34.80
2022-11-21T12:21:15.440Z,34.58
2022-11-21T12:23:54.425Z,36.53
2022-11-21T12:26:43.065Z,35.30
2022-11-21T12:29:30.039Z,37.50
2022-11-21T12:32:18.933Z,35.08
2022-11-21T12:35:05.180Z,36.53
2022-11-21T12:37:56.979Z,36.20
2022-11-21T12:40:50.629Z,35.48
2022-11-21T12:43:28.107Z,35.88
2022-11-21T12:46:12.239Z,36.48
2022-11-21T12:49:17.059Z,36.33
2022-11-21T12:52:19.688Z,36.40
2022-11-21T12:54:54.026Z,35.68
2022-11-21T12:57:24.583Z,36.20
2022-11-21T13:00:16.403Z,35.63
2022-11-21T13:03:04.861Z,35.50
2022-11-21T13:05:42.173Z,36.90
2022-11-21T13:08:19.974Z,36.50
2022-11-21T13:10:52.790Z,38.78
2022-11-21T13:13:33.424Z,39.35
2022-11-21T13:18:52.560Z,39.25
2022-11-21T13:21:47.843Z,39.00
2022-11-21T13:24:49.755Z,38.10
2022-11-21T13:27:42.640Z,40.75
2022-11-21T13:30:16.923Z,39.35
2022-11-21T13:32:56.055Z,39.83
2022-11-21T13:35:27.748Z,42.40
2022-11-21T13:38:03.157Z,40.78
2022-11-21T13:40:37.585Z,43.08
2022-11-21T13:43:32.494Z,41.73
2022-11-21T13:45:49.824Z,41.30
2022-11-21T13:48:36.809Z,41.95
2022-11-21T13:51:28.287Z,42.95
2022-11-21T13:54:14.086Z,42.00
2022-11-21T13:57:05.912Z,42.90
2022-11-21T14:00:14.443Z,41.30
2022-11-21T14:03:08.097Z,39.85
2022-11-21T14:05:40.221Z,43.50
2022-11-21T14:08:23.139Z,43.35
2022-11-21T14:10:53.156Z,41.90
2022-11-21T14:13:36.713Z,43.00
2022-11-21T14:16:17.997Z,44.08
2022-11-21T14:18:48.359Z,42.08
2022-11-21T14:21:27.416Z,44.05
2022-11-21T14:23:58.636Z,42.73
2022-11-21T14:26:29.066Z,45.03
2022-11-21T14:29:02.988Z,43.33
2022-11-21T14:31:34.538Z,44.45
2022-11-21T14:34:02.672Z,44.33
2022-11-21T14:36:31.322Z,45.55
2022-11-21T14:39:29.387Z,44.60
2022-11-21T14:41:33.247Z,44.05
2022-11-21T14:44:04.262Z,44.13
2022-11-21T14:46:37.735Z,44.98
2022-11-21T14:49:21.067Z,44.83
2022-11-21T14:52:04.733Z,45.73
2022-11-21T14:55:06.487Z,46.08
2022-11-21T14:57:24.824Z,47.65
2022-11-21T14:59:54.433Z,45.43
2022-11-21T15:02:24.941Z,45.83
2022-11-21T15:04:55.829Z,46.40
2022-11-21T15:07:31.502Z,47.70
2022-11-21T15:12:31.346Z,48.02
2022-11-21T15:15:03.342Z,47.15
2022-11-21T15:17:31.848Z,49.03
2022-11-21T15:20:11.271Z,48.55
2022-11-21T15:22:39.467Z,50.33
2022-11-21T15:25:19.235Z,51.28
2022-11-21T15:27:49.852Z,48.95
2022-11-21T15:30:24.749Z,49.30
2022-11-21T15:33:17.065Z,48.98
2022-11-21T15:35:56.205Z,50.08
2022-11-21T15:38:34.148Z,46.73
2022-11-21T15:41:08.952Z,48.90
2022-11-21T15:46:22.560Z,48.83
2022-11-21T15:48:59.064Z,50.15
2022-11-21T15:52:05.597Z,52.05
2022-11-21T15:54:06.518Z,52.13
2022-11-21T15:56:34.846Z,52.70
2022-11-21T15:59:02.994Z,52.75
2022-11-21T16:01:31.805Z,53.95
2022-11-21T16:04:01.834Z,54.93
2022-11-21T16:06:31.013Z,49.33
2022-11-21T16:09:02.180Z,49.40
2022-11-21T16:11:41.275Z,50.43
2022-11-21T16:14:14.935Z,50.43
2022-11-21T16:16:43.968Z,46.68
2022-11-21T16:19:13.735Z,48.28
2022-11-21T16:21:41.707Z,49.58
2022-11-21T16:24:11.881Z,48.30
2022-11-21T16:26:43.824Z,48.25
2022-11-21T16:29:12.927Z,46.70
2022-11-21T16:31:41.123Z,51.65
2022-11-21T16:34:09.294Z,49.27
2022-11-21T16:36:38.717Z,47.93
2022-11-21T16:39:11.160Z,49.73
2022-11-21T16:41:36.938Z,47.08
2022-11-21T16:44:05.241Z,47.15
2022-11-21T16:46:33.419Z,51.08
2022-11-21T16:49:03.148Z,47.13
2022-11-21T16:51:31.271Z,46.10
2022-11-21T16:54:04.212Z,45.60
2022-11-21T16:56:28.935Z,46.77
2022-11-21T16:58:57.389Z,47.15
2022-11-21T17:01:27.428Z,46.48
2022-11-21T17:03:55.226Z,47.53
2022-11-21T17:06:27.541Z,47.53
2022-11-21T17:09:18.544Z,46.18
2022-11-21T17:11:46.671Z,50.83
2022-11-21T17:14:17.177Z,48.40
2022-11-21T17:16:45.936Z,44.85
2022-11-21T17:19:17.091Z,51.55
2022-11-21T17:21:45.574Z,54.95
2022-11-21T17:24:14.859Z,53.15
2022-11-21T17:26:42.742Z,52.25
2022-11-21T17:29:10.895Z,53.70
2022-11-21T17:31:38.350Z,53.95
2022-11-21T17:34:06.288Z,90.10
2022-11-21T17:36:35.460Z,51.75
2022-11-21T17:39:04.108Z,49.45
2022-11-21T17:41:31.912Z,49.18
2022-11-21T17:44:04.398Z,48.17
2022-11-21T17:46:32.904Z,48.65
2022-11-21T17:49:00.848Z,43.13
2022-11-21T17:51:33.635Z,45.28
2022-11-21T17:54:02.712Z,46.02
2022-11-21T17:56:37.025Z,46.23
2022-11-21T18:01:34.948Z,43.75
2022-11-21T18:04:08.951Z,41.30
2022-11-21T18:06:39.773Z,42.00
2022-11-21T18:09:08.668Z,41.58
2022-11-21T18:11:40.238Z,41.55
2022-11-21T18:14:09.058Z,42.17
2022-11-21T18:16:39.719Z,43.73
2022-11-21T18:19:10.007Z,40.30
2022-11-21T18:21:37.910Z,35.00
2022-11-21T18:24:06.471Z,35.75
2022-11-21T18:26:37.244Z,34.98
2022-11-21T18:29:35.138Z,35.60
2022-11-21T18:31:42.997Z,31.77
2022-11-21T18:34:12.936Z,27.73
2022-11-21T18:36:40.372Z,25.48
2022-11-21T18:39:14.857Z,24.43
2022-11-21T18:41:38.846Z,23.52
2022-11-21T18:44:07.445Z,21.68
2022-11-21T18:46:41.516Z,23.40
2022-11-21T18:49:09.235Z,23.35
2022-11-21T18:51:37.319Z,19.90
2022-11-21T18:54:14.129Z,20.12
2022-11-21T18:56:42.162Z,19.42
2022-11-21T18:59:09.669Z,19.92
2022-11-21T19:01:40.120Z,17.95
2022-11-21T19:04:07.898Z,17.65
2022-11-21T19:06:39.091Z,19.12
2022-11-21T19:09:08.484Z,17.60
2022-11-21T19:11:38.683Z,18.37
2022-11-21T19:14:06.791Z,18.32
2022-11-21T19:16:35.587Z,17.32
2022-11-21T19:21:39.248Z,20.23
2022-11-21T19:24:07.987Z,19.20
2022-11-21T19:26:36.298Z,19.30
2022-11-21T19:29:04.814Z,18.45
2022-11-21T19:31:32.806Z,19.17
2022-11-21T19:34:00.697Z,19.37
2022-11-21T19:36:28.388Z,18.92
2022-11-21T19:38:57.278Z,19.32
2022-11-21T19:41:28.365Z,19.42
2022-11-21T19:43:58.720Z,19.90
2022-11-21T19:46:31.230Z,18.65
2022-11-21T19:49:00.700Z,19.15
2022-11-21T19:51:31.923Z,20.45
2022-11-21T19:54:02.581Z,20.50
2022-11-21T19:56:31.508Z,18.55
2022-11-21T19:58:59.586Z,19.32
2022-11-21T20:01:29.893Z,19.80
2022-11-21T20:04:00.147Z,19.37
2022-11-21T20:06:31.227Z,19.75
2022-11-21T20:09:13.021Z,19.57
2022-11-21T20:11:43.124Z,19.77
2022-11-21T20:14:21.084Z,19.82
2022-11-21T20:16:49.434Z,19.82
2022-11-21T20:19:18.881Z,20.10
2022-11-21T20:21:47.461Z,19.40
2022-11-21T20:24:15.377Z,19.32
2022-11-21T20:26:46.926Z,19.52
2022-11-21T20:29:16.286Z,18.52
2022-11-21T20:31:44.996Z,19.50
2022-11-21T20:34:13.854Z,19.07
2022-11-21T20:36:59.030Z,19.20
2022-11-21T20:39:32.478Z,19.35
2022-11-21T20:42:00.444Z,18.40
2022-11-21T20:46:58.229Z,17.65
2022-11-21T20:49:26.572Z,17.73
2022-11-21T20:53:43.934Z,17.75
2022-11-21T20:54:25.041Z,17.55
2022-11-21T20:56:52.895Z,18.92
2022-11-21T20:59:21.314Z,16.57
2022-11-21T21:01:50.134Z,15.05
2022-11-21T21:04:18.408Z,16.32
2022-11-21T21:06:48.469Z,15.65
2022-11-21T21:09:19.196Z,15.43
2022-11-21T21:11:52.587Z,17.15
2022-11-21T21:14:17.268Z,15.75
2022-11-21T21:16:46.231Z,15.08
2022-11-21T21:19:14.060Z,16.17
2022-11-21T21:21:42.446Z,15.65
2022-11-21T21:24:12.082Z,15.45
2022-11-21T21:26:43.658Z,15.72
2022-11-21T21:29:14.664Z,15.38
2022-11-21T21:31:49.902Z,14.10
2022-11-21T21:34:14.519Z,15.88
2022-11-21T21:36:42.195Z,14.70
2022-11-21T21:39:10.083Z,14.05
2022-11-21T21:41:40.313Z,14.05
2022-11-21T21:44:07.917Z,13.93
2022-11-21T21:46:36.027Z,14.65
2022-11-21T21:49:04.926Z,13.72
2022-11-21T21:51:32.920Z,13.32
2022-11-21T21:54:00.948Z,12.43
2022-11-21T21:56:29.652Z,12.78
2022-11-21T21:59:02.551Z,11.60
2022-11-21T22:01:32.642Z,10.75
2022-11-21T22:04:05.398Z,11.48
2022-11-21T22:06:34.795Z,11.25
2022-11-21T22:09:03.788Z,11.33
2022-11-21T22:11:33.534Z,10.95
2022-11-21T22:14:05.110Z,10.63
2022-11-21T22:16:36.105Z,10.90
2022-11-21T22:19:04.341Z,10.75
2022-11-21T22:21:34.330Z,11.38
2022-11-21T22:24:29.993Z,11.65
2022-11-21T22:26:45.860Z,10.75
2022-11-21T22:29:13.514Z,10.93
2022-11-21T22:31:41.033Z,10.50
2022-11-21T22:34:12.976Z,11.22
2022-11-21T22:36:42.065Z,10.80
2022-11-21T22:39:11.267Z,10.43
2022-11-21T22:41:39.712Z,10.98
2022-11-21T22:44:07.634Z,10.10
2022-11-21T22:46:35.697Z,10.85
2022-11-21T22:49:04.140Z,11.10
2022-11-21T22:51:32.298Z,10.60
2022-11-21T22:54:00.732Z,10.05
2022-11-21T22:56:28.584Z,10.72
2022-11-21T22:58:56.547Z,9.95
2022-11-21T23:01:28.919Z,9.63
2022-11-21T23:03:56.716Z,9.48
2022-11-21T23:06:26.709Z,9.58
2022-11-21T23:08:56.330Z,9.08
2022-11-21T23:11:30.077Z,9.38
2022-11-21T23:14:00.057Z,9.15
2022-11-21T23:16:28.926Z,9.25
2022-11-21T23:18:57.021Z,9.60
2022-11-21T23:21:25.146Z,9.43
2022-11-21T23:23:52.968Z,9.48
2022-11-21T23:26:24.897Z,9.58
2022-11-21T23:28:53.818Z,9.18
2022-11-21T23:31:21.761Z,9.05
2022-11-21T23:33:49.339Z,8.48
2022-11-21T23:36:17.715Z,9.73
2022-11-21T23:38:45.707Z,8.25
2022-11-21T23:41:13.703Z,8.53
2022-11-21T23:43:41.670Z,7.78
2022-11-21T23:46:10.061Z,7.58
2022-11-21T23:48:37.800Z,7.08
2022-11-21T23:51:05.832Z,7.50
2022-11-21T23:53:33.594Z,7.28
2022-11-21T23:56:05.007Z,6.15
2022-11-21T23:58:34.837Z,5.78
